KARR

Aurora Municipal Airport

Chicago/Aurora, Illinois, USA
METAR KARR 251452Z 21006KT 9SM SCT007 24/20 A2990 RMK AO2 SLP119 T02390200 58004
Observed Flight Rules
Sep-25 @ 14:52 UTC (46 minutes ago) Visual Flight Rules
Wind Visibility Clouds
210° at 6 knots 9 miles
  • Scattered at 700' AGL
Temperatures Readings
Current 24°C / 75°F
Dewpoint 20°C / 68°F
Humidity 78%
Altimeter 29.9" Hg
Pressure 1011.9 hPa
Elevation 215
METAR KARR 251452Z 21006KT 9SM SCT007 24/20 A2990 RMK AO2 SLP119 T02390200 58004
Observed Flight Rules
Sep-25 @ 14:52 UTC
(46 minutes ago)
VFR
Wind Visibility
210° at 6 knots 9 miles
Clouds
  • Scattered at 700' AGL
Temperature Dewpoint
24°C / 75°F 20°C / 68°F
Humidity Altimeter Pressure
78% 29.9" Hg 1011.9 hPa